createdAt,value
2022-08-12T00:00:52.252Z,17.30
2022-08-12T00:05:13.865Z,17.30
2022-08-12T00:09:34.233Z,17.20
2022-08-12T00:13:54.325Z,17.20
2022-08-12T00:18:14.687Z,17.10
2022-08-12T00:22:36.559Z,17.00
2022-08-12T00:26:56.919Z,17.00
2022-08-12T00:31:17.273Z,17.00
2022-08-12T00:35:37.484Z,16.90
2022-08-12T00:40:01.687Z,16.90
2022-08-12T00:44:10.814Z,16.90
2022-08-12T00:48:14.753Z,16.80
2022-08-12T00:52:18.586Z,16.70
2022-08-12T00:56:26.586Z,16.60
2022-08-12T01:00:29.371Z,16.50
2022-08-12T01:04:49.654Z,16.50
2022-08-12T01:09:11.498Z,16.40
2022-08-12T01:13:19.559Z,16.40
2022-08-12T01:17:23.978Z,16.10
2022-08-12T01:21:44.775Z,15.80
2022-08-12T01:25:55.961Z,15.80
2022-08-12T01:30:02.782Z,16.00
2022-08-12T01:34:28.670Z,16.10
2022-08-12T01:38:34.762Z,15.90
2022-08-12T01:42:45.875Z,16.00
2022-08-12T01:46:58.547Z,16.10
2022-08-12T01:51:06.363Z,16.00
2022-08-12T01:55:12.371Z,16.00
2022-08-12T01:59:36.310Z,15.90
2022-08-12T02:04:18.471Z,15.90
2022-08-12T02:08:52.300Z,15.90
2022-08-12T02:13:04.197Z,15.80
2022-08-12T02:17:54.779Z,15.70
2022-08-12T02:21:52.895Z,15.60
2022-08-12T02:26:00.479Z,15.50
2022-08-12T02:30:03.723Z,15.40
2022-08-12T02:34:09.318Z,15.30
2022-08-12T02:38:13.790Z,15.30
2022-08-12T02:42:19.984Z,15.20
2022-08-12T02:46:29.702Z,15.10
2022-08-12T02:50:37.650Z,15.20
2022-08-12T02:54:44.851Z,15.20
2022-08-12T02:58:47.863Z,15.20
2022-08-12T03:02:52.784Z,15.20
2022-08-12T03:07:10.386Z,15.10
2022-08-12T03:11:17.864Z,15.10
2022-08-12T03:15:22.998Z,15.10
2022-08-12T03:19:26.143Z,15.10
2022-08-12T03:23:31.676Z,15.00
2022-08-12T03:27:34.509Z,15.00
2022-08-12T03:31:37.362Z,15.00
2022-08-12T03:35:42.502Z,14.90
2022-08-12T03:39:47.845Z,14.80
2022-08-12T03:44:16.982Z,14.70
2022-08-12T03:48:37.842Z,14.60
2022-08-12T03:52:58.153Z,14.70
2022-08-12T03:57:19.676Z,14.70
2022-08-12T04:01:23.399Z,14.60
2022-08-12T04:05:54.220Z,14.60
2022-08-12T04:09:49.217Z,14.60
2022-08-12T04:13:52.378Z,14.50
2022-08-12T04:18:07.717Z,14.40
2022-08-12T04:22:12.487Z,14.20
2022-08-12T04:26:15.315Z,13.90
2022-08-12T04:30:32.510Z,13.90
2022-08-12T04:34:39.239Z,13.80
2022-08-12T04:38:43.108Z,13.90
2022-08-12T04:42:46.644Z,13.90
2022-08-12T04:46:50.795Z,13.70
2022-08-12T04:50:53.747Z,13.70
2022-08-12T04:54:56.876Z,13.60
2022-08-12T04:59:00.256Z,13.60
2022-08-12T05:03:05.495Z,13.70
2022-08-12T05:07:09.759Z,14.00
2022-08-12T05:11:12.886Z,14.10
2022-08-12T05:15:26.549Z,14.40
2022-08-12T05:19:34.707Z,14.80
2022-08-12T05:23:42.709Z,14.90
2022-08-12T05:27:58.205Z,15.00
2022-08-12T05:32:02.947Z,15.30
2022-08-12T05:36:08.697Z,15.80
2022-08-12T05:40:13.022Z,17.00
2022-08-12T05:44:16.770Z,17.60
2022-08-12T05:48:20.302Z,18.20
2022-08-12T05:52:24.487Z,19.50
2022-08-12T05:56:31.416Z,21.60
2022-08-12T06:00:35.165Z,23.60
2022-08-12T06:04:38.562Z,26.90
2022-08-12T06:08:48.561Z,29.50
2022-08-12T06:12:51.575Z,31.40
2022-08-12T06:16:54.395Z,32.50
2022-08-12T06:21:01.712Z,33.00
2022-08-12T06:25:06.647Z,31.10
2022-08-12T06:29:09.454Z,34.30
2022-08-12T06:33:22.888Z,30.90
2022-08-12T06:37:27.959Z,29.60
2022-08-12T06:42:27.712Z,31.70
2022-08-12T06:46:13.603Z,28.50
2022-08-12T06:50:16.884Z,28.10
2022-08-12T06:54:31.272Z,27.30
2022-08-12T06:58:37.326Z,27.30
2022-08-12T07:02:40.308Z,27.30
2022-08-12T07:06:44.742Z,27.00
2022-08-12T07:10:59.237Z,27.60
2022-08-12T07:15:03.539Z,28.80
2022-08-12T07:19:06.372Z,29.60
2022-08-12T07:23:09.359Z,29.80
2022-08-12T07:27:12.129Z,29.30
2022-08-12T07:31:17.334Z,27.70
2022-08-12T07:35:20.878Z,26.50
2022-08-12T07:39:23.735Z,25.90
2022-08-12T07:43:28.014Z,25.00
2022-08-12T07:47:33.330Z,24.50
2022-08-12T07:51:36.370Z,24.30
2022-08-12T07:55:39.431Z,25.90
2022-08-12T07:59:42.270Z,26.30
2022-08-12T08:04:16.446Z,28.00
2022-08-12T08:08:23.141Z,29.40
2022-08-12T08:12:44.363Z,28.70
2022-08-12T08:16:48.505Z,27.50
2022-08-12T08:20:52.659Z,26.70
2022-08-12T08:24:57.569Z,27.30
2022-08-12T08:29:00.560Z,27.30
2022-08-12T08:33:11.253Z,26.00
2022-08-12T08:37:32.884Z,26.10
2022-08-12T08:42:17.784Z,26.70
2022-08-12T08:46:16.645Z,26.80
2022-08-12T08:50:19.469Z,25.60
2022-08-12T08:54:24.634Z,25.90
2022-08-12T08:58:27.494Z,26.20
2022-08-12T09:02:30.277Z,27.00
2022-08-12T09:12:07.225Z,26.80
2022-08-12T09:15:42.370Z,25.30
2022-08-12T09:19:58.933Z,26.20
2022-08-12T09:24:06.162Z,27.50
2022-08-12T09:28:12.917Z,28.40
2022-08-12T09:32:56.256Z,27.20
2022-08-12T09:37:00.141Z,28.00
2022-08-12T09:42:32.942Z,26.80
2022-08-12T09:46:11.850Z,27.10
2022-08-12T09:49:49.145Z,27.00
2022-08-12T09:54:33.715Z,26.10
2022-08-12T09:58:58.008Z,26.10
2022-08-12T10:03:05.821Z,28.10
2022-08-12T10:07:13.715Z,27.40
2022-08-12T10:12:11.694Z,29.20
2022-08-12T10:16:21.798Z,29.40
2022-08-12T10:20:26.871Z,28.40
2022-08-12T10:24:29.635Z,27.50
2022-08-12T10:29:01.940Z,28.00
2022-08-12T10:33:18.204Z,27.50
2022-08-12T10:38:34.382Z,26.20
2022-08-12T10:42:04.624Z,26.70
2022-08-12T10:46:13.205Z,25.20
2022-08-12T10:50:35.955Z,26.20
2022-08-12T10:54:41.579Z,27.70
2022-08-12T10:58:46.061Z,29.00
2022-08-12T11:04:20.315Z,26.90
2022-08-12T11:08:33.799Z,26.50
2022-08-12T11:12:37.054Z,26.60
2022-08-12T11:16:22.245Z,27.40
2022-08-12T11:20:30.539Z,26.40
2022-08-12T11:24:34.040Z,26.30
2022-08-12T11:28:39.099Z,28.00
2022-08-12T11:32:41.865Z,28.00
2022-08-12T11:36:55.621Z,28.00
2022-08-12T11:41:02.353Z,29.30
2022-08-12T11:45:10.300Z,30.80
2022-08-12T11:49:13.459Z,29.10
2022-08-12T11:53:58.317Z,27.90
2022-08-12T11:58:34.154Z,29.70
2022-08-12T12:02:21.580Z,28.90
2022-08-12T12:06:24.654Z,34.40
2022-08-12T12:10:27.431Z,29.30
2022-08-12T12:14:38.304Z,30.90
2022-08-12T12:18:43.659Z,28.20
2022-08-12T12:22:46.421Z,34.60
2022-08-12T12:26:59.607Z,32.90
2022-08-12T12:31:04.234Z,39.50
2022-08-12T12:35:14.080Z,44.50
2022-08-12T12:39:54.877Z,43.30
2022-08-12T12:44:04.078Z,43.40
2022-08-12T12:48:09.960Z,41.40
2022-08-12T12:52:21.009Z,47.20
2022-08-12T12:56:33.983Z,44.60
2022-08-12T13:00:40.411Z,34.90
2022-08-12T13:04:53.641Z,42.10
2022-08-12T13:08:57.957Z,45.70
2022-08-12T13:14:10.592Z,40.50
2022-08-12T13:18:02.406Z,36.60
2022-08-12T13:22:08.415Z,38.00
2022-08-12T13:26:14.363Z,43.60
2022-08-12T13:30:20.301Z,38.30
2022-08-12T13:34:32.315Z,37.60
2022-08-12T13:38:38.666Z,35.50
2022-08-12T13:42:46.273Z,38.20
2022-08-12T13:46:58.076Z,36.70
2022-08-12T13:51:04.392Z,34.30
2022-08-12T13:55:07.886Z,34.10
2022-08-12T13:59:13.413Z,35.20
2022-08-12T14:03:17.750Z,35.80
2022-08-12T14:07:20.542Z,35.10
2022-08-12T14:11:25.404Z,31.40
2022-08-12T14:15:37.240Z,31.20
2022-08-12T14:20:01.788Z,30.60
2022-08-12T14:24:09.570Z,30.20
2022-08-12T14:28:16.966Z,28.90
2022-08-12T14:32:21.894Z,28.50
2022-08-12T14:36:27.697Z,28.90
2022-08-12T14:40:31.187Z,28.70
2022-08-12T14:44:57.668Z,28.90
2022-08-12T14:48:58.881Z,28.20
2022-08-12T14:57:56.866Z,27.50
2022-08-12T15:02:00.429Z,26.40
2022-08-12T15:06:39.462Z,26.30
2022-08-12T15:10:32.434Z,26.60
2022-08-12T15:14:38.129Z,25.80
2022-08-12T15:18:55.159Z,25.30
2022-08-12T15:23:00.864Z,25.00
2022-08-12T15:27:04.013Z,25.90
2022-08-12T15:31:28.036Z,26.40
2022-08-12T15:35:53.240Z,25.70
2022-08-12T15:40:00.922Z,25.60
2022-08-12T15:44:37.323Z,25.90
2022-08-12T15:48:27.206Z,26.40
2022-08-12T15:52:33.354Z,25.90
2022-08-12T15:56:38.195Z,26.00
2022-08-12T16:00:42.119Z,26.80
2022-08-12T16:04:44.953Z,26.40
2022-08-12T16:08:48.666Z,25.70
2022-08-12T16:12:56.341Z,25.10
2022-08-12T16:16:59.110Z,25.40
2022-08-12T16:21:02.769Z,24.80
2022-08-12T16:25:07.549Z,25.10
2022-08-12T16:29:15.371Z,24.60
2022-08-12T16:33:19.545Z,24.70
2022-08-12T16:37:22.975Z,24.40
2022-08-12T16:41:39.464Z,24.10
2022-08-12T16:46:07.735Z,23.80
2022-08-12T16:50:09.886Z,23.30
2022-08-12T16:54:18.863Z,23.40
2022-08-12T16:58:30.317Z,23.30
2022-08-12T17:02:37.871Z,23.00
2022-08-12T17:06:44.347Z,22.80
2022-08-12T17:10:52.638Z,23.20
2022-08-12T17:14:56.281Z,23.10
2022-08-12T17:19:03.359Z,23.30
2022-08-12T17:23:14.358Z,23.10
2022-08-12T17:27:17.555Z,23.30
2022-08-12T17:32:00.233Z,22.80
2022-08-12T17:35:49.959Z,22.70
2022-08-12T17:40:12.770Z,22.70
2022-08-12T17:44:16.583Z,22.80
2022-08-12T17:48:21.820Z,23.00
2022-08-12T17:52:33.334Z,23.00
2022-08-12T17:56:37.887Z,22.70
2022-08-12T18:00:45.094Z,22.50
2022-08-12T18:05:03.121Z,22.70
2022-08-12T18:09:09.834Z,22.70
2022-08-12T18:13:13.490Z,22.20
2022-08-12T18:17:39.495Z,22.10
2022-08-12T18:22:01.160Z,22.20
2022-08-12T18:26:26.419Z,22.10
2022-08-12T18:30:31.298Z,21.90
2022-08-12T18:34:34.970Z,21.80
2022-08-12T18:38:38.130Z,21.80
2022-08-12T18:42:46.848Z,21.70
2022-08-12T18:47:02.063Z,21.50
2022-08-12T18:51:09.177Z,21.40
2022-08-12T18:55:13.526Z,21.20
2022-08-12T19:00:01.334Z,21.20
2022-08-12T19:03:57.331Z,21.20
2022-08-12T19:08:03.054Z,21.20
2022-08-12T19:12:25.126Z,21.20
2022-08-12T19:16:38.764Z,21.20
2022-08-12T19:20:42.802Z,21.20
2022-08-12T19:25:08.814Z,21.10
2022-08-12T19:29:11.757Z,21.10
2022-08-12T19:33:19.254Z,21.10
2022-08-12T19:38:04.465Z,21.00
2022-08-12T19:42:01.361Z,20.90
2022-08-12T19:46:06.146Z,20.90
2022-08-12T19:50:11.846Z,20.80
2022-08-12T19:54:15.187Z,20.70
2022-08-12T19:58:18.439Z,20.70
2022-08-12T20:02:32.769Z,20.50
2022-08-12T20:06:41.743Z,20.50
2022-08-12T20:10:47.146Z,20.50
2022-08-12T20:14:53.795Z,20.40
2022-08-12T20:18:58.033Z,20.20
2022-08-12T20:23:08.690Z,20.10
2022-08-12T20:27:29.390Z,20.10
2022-08-12T20:31:37.414Z,20.00
2022-08-12T20:36:14.019Z,20.00
2022-08-12T20:40:05.775Z,19.90
2022-08-12T20:44:16.871Z,19.80
2022-08-12T20:48:21.563Z,19.70
2022-08-12T20:52:30.057Z,19.10
2022-08-12T20:56:37.056Z,19.20
2022-08-12T21:00:39.938Z,19.10
2022-08-12T21:05:00.267Z,19.10
2022-08-12T21:09:02.909Z,19.00
2022-08-12T21:13:20.146Z,18.90
2022-08-12T21:17:23.846Z,18.80
2022-08-12T21:21:50.100Z,18.80
2022-08-12T21:25:56.685Z,18.70
2022-08-12T21:30:06.655Z,18.60
2022-08-12T21:34:09.659Z,18.40
2022-08-12T21:38:12.447Z,18.50
2022-08-12T21:42:15.698Z,18.50
2022-08-12T21:46:33.778Z,18.40
2022-08-12T21:50:41.313Z,18.20
2022-08-12T21:54:46.384Z,18.20
2022-08-12T21:58:49.150Z,18.20
2022-08-12T22:03:10.622Z,18.10
2022-08-12T22:07:13.394Z,18.00
2022-08-12T22:11:23.646Z,17.90
2022-08-12T22:15:45.463Z,17.80
2022-08-12T22:19:55.503Z,17.70
2022-08-12T22:24:05.478Z,17.50
2022-08-12T22:28:26.113Z,17.40
2022-08-12T22:32:30.089Z,17.40
2022-08-12T22:36:34.482Z,17.30
2022-08-12T22:40:37.303Z,17.30
2022-08-12T22:44:57.671Z,17.20
2022-08-12T22:49:00.245Z,17.20
2022-08-12T22:53:16.215Z,17.20
2022-08-12T22:57:20.382Z,17.20
2022-08-12T23:01:52.238Z,17.10
2022-08-12T23:06:05.312Z,17.10
2022-08-12T23:10:15.313Z,17.00
2022-08-12T23:14:24.857Z,16.90
2022-08-12T23:18:33.469Z,17.00
2022-08-12T23:22:37.399Z,17.00
2022-08-12T23:26:58.829Z,17.00
2022-08-12T23:31:04.804Z,16.90
2022-08-12T23:35:09.475Z,16.90
2022-08-12T23:40:13.900Z,16.80
2022-08-12T23:43:50.167Z,16.70
2022-08-12T23:47:54.110Z,16.60
2022-08-12T23:52:11.543Z,16.60
2022-08-12T23:56:16.256Z,16.50
